ADDS METAR Data INFO
IDs: Format: Raw Decoded Include TAF

Data at: 1926 UTC 19 Jul 2018

METAR for:KFPR (Ft Pierce/St Lucie I, FL, US)
Text:KFPR 191853Z 22009KT 10SM FEW050 34/21 A2997 RMK AO2 SLP148 T03440211
Temperature: 34.4°C ( 94°F)
Dewpoint: 21.1°C ( 70°F) [RH = 46%]
Pressure (altimeter):29.97 inches Hg (1015.0 mb) [Sea level pressure: 1014.8 mb]
Winds:from the SW (220 degrees) at 10 MPH (9 knots; 4.6 m/s)
Visibility:10 or more sm (16+ km)
Ceiling:at least 12,000 feet AGL
Clouds: few clouds at 5000 feet AGL